createdAt,value
2022-08-20T00:02:10.948Z,17.30
2022-08-20T00:04:39.611Z,17.30
2022-08-20T00:07:09.026Z,17.30
2022-08-20T00:09:37.098Z,17.20
2022-08-20T00:12:06.148Z,17.20
2022-08-20T00:14:34.834Z,17.20
2022-08-20T00:17:03.245Z,17.20
2022-08-20T00:19:31.637Z,17.20
2022-08-20T00:21:59.553Z,17.20
2022-08-20T00:24:28.832Z,17.20
2022-08-20T00:26:56.762Z,17.20
2022-08-20T00:29:24.792Z,17.20
2022-08-20T00:31:52.744Z,17.20
2022-08-20T00:34:20.902Z,17.20
2022-08-20T00:36:48.824Z,17.20
2022-08-20T00:39:16.807Z,17.10
2022-08-20T00:41:46.032Z,17.10
2022-08-20T00:44:18.534Z,17.20
2022-08-20T00:46:47.453Z,17.10
2022-08-20T00:49:18.454Z,17.10
2022-08-20T00:51:49.978Z,17.10
2022-08-20T00:54:24.906Z,17.10
2022-08-20T00:56:59.523Z,17.20
2022-08-20T00:59:30.674Z,17.10
2022-08-20T01:01:59.414Z,17.10
2022-08-20T01:04:29.860Z,17.20
2022-08-20T01:06:58.418Z,17.20
2022-08-20T01:09:49.735Z,17.20
2022-08-20T01:12:18.010Z,17.20
2022-08-20T01:14:47.479Z,17.20
2022-08-20T01:17:19.732Z,17.20
2022-08-20T01:19:53.439Z,17.20
2022-08-20T01:22:46.371Z,17.10
2022-08-20T01:25:20.777Z,17.10
2022-08-20T01:27:55.389Z,17.10
2022-08-20T01:30:28.417Z,17.20
2022-08-20T01:32:56.865Z,17.20
2022-08-20T01:35:26.716Z,17.20
2022-08-20T01:37:54.829Z,17.20
2022-08-20T01:40:35.635Z,17.20
2022-08-20T01:43:06.406Z,17.20
2022-08-20T01:45:36.402Z,17.20
2022-08-20T01:48:06.045Z,17.20
2022-08-20T01:50:36.254Z,17.20
2022-08-20T01:53:13.669Z,17.20
2022-08-20T01:55:42.111Z,17.10
2022-08-20T01:58:11.803Z,17.10
2022-08-20T02:00:39.966Z,17.20
2022-08-20T02:03:08.542Z,17.20
2022-08-20T02:05:36.769Z,17.20
2022-08-20T02:08:06.076Z,17.10
2022-08-20T02:10:34.209Z,17.10
2022-08-20T02:13:02.801Z,17.10
2022-08-20T02:15:37.082Z,17.10
2022-08-20T02:18:10.758Z,17.10
2022-08-20T02:20:40.030Z,17.10
2022-08-20T02:23:09.377Z,17.10
2022-08-20T02:25:40.315Z,17.10
2022-08-20T02:28:11.944Z,17.10
2022-08-20T02:30:46.353Z,17.10
2022-08-20T02:33:17.157Z,17.00
2022-08-20T02:35:47.949Z,17.10
2022-08-20T02:38:16.768Z,17.00
2022-08-20T02:40:46.068Z,17.10
2022-08-20T02:43:14.487Z,17.00
2022-08-20T02:45:44.655Z,17.00
2022-08-20T02:48:21.211Z,17.00
2022-08-20T02:50:51.708Z,17.00
2022-08-20T02:53:19.798Z,17.00
2022-08-20T02:55:48.069Z,17.00
2022-08-20T02:58:16.308Z,17.00
2022-08-20T03:00:45.875Z,17.00
2022-08-20T03:03:15.695Z,17.00
2022-08-20T03:05:45.462Z,17.00
2022-08-20T03:08:15.288Z,17.00
2022-08-20T03:10:45.129Z,17.00
2022-08-20T03:13:14.920Z,17.00
2022-08-20T03:15:46.699Z,17.00
2022-08-20T03:18:15.047Z,17.00
2022-08-20T03:20:43.489Z,16.90
2022-08-20T03:23:14.273Z,16.90
2022-08-20T03:25:42.464Z,16.90
2022-08-20T03:28:11.091Z,17.00
2022-08-20T03:30:39.707Z,17.00
2022-08-20T03:33:09.236Z,16.90
2022-08-20T03:35:38.517Z,17.00
2022-08-20T03:38:08.600Z,17.00
2022-08-20T03:40:37.326Z,17.00
2022-08-20T03:43:06.011Z,17.00
2022-08-20T03:45:34.126Z,17.00
2022-08-20T03:48:02.574Z,17.00
2022-08-20T03:50:33.062Z,16.90
2022-08-20T03:53:01.546Z,16.90
2022-08-20T03:55:31.396Z,16.90
2022-08-20T03:58:02.969Z,16.90
2022-08-20T04:00:35.141Z,16.90
2022-08-20T04:03:03.402Z,16.90
2022-08-20T04:05:34.315Z,16.90
2022-08-20T04:08:03.720Z,16.90
2022-08-20T04:10:31.967Z,16.90
2022-08-20T04:12:59.907Z,16.90
2022-08-20T04:15:29.732Z,16.90
2022-08-20T04:17:59.761Z,17.00
2022-08-20T04:20:28.214Z,17.00
2022-08-20T04:22:59.421Z,17.00
2022-08-20T04:25:28.487Z,17.00
2022-08-20T04:27:58.528Z,17.00
2022-08-20T04:30:27.223Z,17.00
2022-08-20T04:32:56.079Z,17.00
2022-08-20T04:35:25.358Z,17.00
2022-08-20T04:38:02.285Z,17.00
2022-08-20T04:40:48.121Z,17.10
2022-08-20T04:43:16.606Z,17.00
2022-08-20T04:45:45.265Z,17.00
2022-08-20T04:48:15.320Z,17.00
2022-08-20T04:50:46.902Z,17.00
2022-08-20T04:53:22.736Z,17.00
2022-08-20T04:55:55.053Z,17.00
2022-08-20T04:58:27.376Z,17.00
2022-08-20T05:00:56.910Z,17.00
2022-08-20T05:03:30.024Z,17.00
2022-08-20T05:05:58.576Z,17.00
2022-08-20T05:08:28.056Z,17.00
2022-08-20T05:11:06.724Z,17.00
2022-08-20T05:13:45.733Z,17.10
2022-08-20T05:16:14.198Z,17.10
2022-08-20T05:18:44.731Z,17.10
2022-08-20T05:21:20.653Z,17.10
2022-08-20T05:23:50.137Z,17.10
2022-08-20T05:26:20.155Z,17.20
2022-08-20T05:28:57.561Z,17.20
2022-08-20T05:31:31.863Z,17.20
2022-08-20T05:34:01.667Z,17.30
2022-08-20T05:36:29.887Z,17.30
2022-08-20T05:38:59.220Z,17.30
2022-08-20T05:41:30.169Z,17.30
2022-08-20T05:44:01.133Z,17.30
2022-08-20T05:46:29.505Z,17.40
2022-08-20T05:48:59.443Z,17.40
2022-08-20T05:51:27.697Z,17.40
2022-08-20T05:53:57.395Z,17.50
2022-08-20T05:56:30.248Z,17.50
2022-08-20T05:58:59.397Z,17.50
2022-08-20T06:01:27.395Z,17.60
2022-08-20T06:04:12.961Z,17.70
2022-08-20T06:06:46.029Z,17.80
2022-08-20T06:09:16.115Z,17.90
2022-08-20T06:11:45.309Z,17.90
2022-08-20T06:14:13.289Z,17.90
2022-08-20T06:16:57.098Z,18.10
2022-08-20T06:19:26.362Z,18.20
2022-08-20T06:21:54.666Z,18.30
2022-08-20T06:24:22.688Z,18.30
2022-08-20T06:26:57.885Z,18.40
2022-08-20T06:29:26.062Z,18.50
2022-08-20T06:31:54.168Z,18.60
2022-08-20T06:34:22.072Z,18.70
2022-08-20T06:36:49.981Z,18.70
2022-08-20T06:39:17.945Z,18.70
2022-08-20T06:41:45.877Z,18.70
2022-08-20T06:44:15.288Z,18.80
2022-08-20T06:46:43.337Z,18.80
2022-08-20T06:49:11.400Z,18.90
2022-08-20T06:51:40.089Z,19.10
2022-08-20T06:54:09.647Z,19.20
2022-08-20T06:56:37.682Z,19.30
2022-08-20T06:59:05.567Z,19.40
2022-08-20T07:01:35.765Z,19.20
2022-08-20T07:04:07.560Z,19.20
2022-08-20T07:06:35.693Z,19.10
2022-08-20T07:09:03.710Z,19.00
2022-08-20T07:11:31.631Z,19.00
2022-08-20T07:13:59.602Z,19.10
2022-08-20T07:16:27.984Z,19.00
2022-08-20T07:18:58.250Z,19.00
2022-08-20T07:21:26.599Z,19.00
2022-08-20T07:23:54.529Z,19.10
2022-08-20T07:26:22.936Z,19.20
2022-08-20T07:28:50.964Z,19.00
2022-08-20T07:31:36.583Z,19.00
2022-08-20T07:34:06.231Z,19.10
2022-08-20T07:36:34.902Z,19.10
2022-08-20T07:39:05.896Z,19.30
2022-08-20T07:41:34.848Z,19.50
2022-08-20T07:44:03.384Z,19.70
2022-08-20T07:46:32.282Z,19.70
2022-08-20T07:49:00.363Z,19.90
2022-08-20T07:51:29.894Z,20.00
2022-08-20T07:54:00.109Z,20.00
2022-08-20T07:56:28.247Z,20.00
2022-08-20T07:58:59.191Z,19.90
2022-08-20T08:01:29.673Z,19.80
2022-08-20T08:03:57.937Z,19.80
2022-08-20T08:06:29.067Z,19.90
2022-08-20T08:09:02.478Z,19.90
2022-08-20T08:11:30.957Z,19.90
2022-08-20T08:14:00.752Z,19.80
2022-08-20T08:16:32.532Z,19.90
2022-08-20T08:19:01.828Z,20.10
2022-08-20T08:21:31.090Z,20.30
2022-08-20T08:24:00.663Z,20.10
2022-08-20T08:26:29.290Z,20.00
2022-08-20T08:28:58.002Z,20.00
2022-08-20T08:31:26.613Z,19.90
2022-08-20T08:33:55.177Z,20.00
2022-08-20T08:36:23.237Z,20.20
2022-08-20T08:38:51.201Z,20.10
2022-08-20T08:41:26.060Z,20.00
2022-08-20T08:43:55.619Z,20.10
2022-08-20T08:46:27.450Z,20.10
2022-08-20T08:49:01.560Z,20.00
2022-08-20T08:51:34.878Z,19.90
2022-08-20T08:54:06.938Z,19.70
2022-08-20T08:56:37.100Z,19.60
2022-08-20T08:59:08.687Z,19.50
2022-08-20T09:01:55.198Z,19.40
2022-08-20T09:04:31.577Z,19.40
2022-08-20T09:07:00.582Z,19.20
2022-08-20T09:09:32.527Z,19.10
2022-08-20T09:12:07.828Z,19.10
2022-08-20T09:14:36.644Z,19.00
2022-08-20T09:17:05.054Z,18.90
2022-08-20T09:19:32.951Z,19.00
2022-08-20T09:22:07.378Z,19.00
2022-08-20T09:24:35.600Z,19.10
2022-08-20T09:27:05.229Z,19.20
2022-08-20T09:29:33.778Z,19.40
2022-08-20T09:32:09.185Z,19.40
2022-08-20T09:34:38.648Z,19.50
2022-08-20T09:37:06.668Z,19.60
2022-08-20T09:39:35.215Z,19.60
2022-08-20T09:42:13.564Z,19.70
2022-08-20T09:44:42.062Z,19.70
2022-08-20T09:47:11.122Z,19.90
2022-08-20T09:49:40.471Z,20.00
2022-08-20T09:52:09.906Z,20.10
2022-08-20T09:54:46.310Z,20.30
2022-08-20T09:57:17.129Z,20.30
2022-08-20T09:59:48.056Z,20.30
2022-08-20T10:02:15.977Z,20.40
2022-08-20T10:04:43.875Z,20.70
2022-08-20T10:07:12.197Z,20.70
2022-08-20T10:09:44.933Z,20.80
2022-08-20T10:12:13.302Z,20.80
2022-08-20T10:14:42.530Z,21.00
2022-08-20T10:17:10.628Z,21.10
2022-08-20T10:19:38.541Z,21.20
2022-08-20T10:22:06.727Z,21.20
2022-08-20T10:24:35.643Z,21.10
2022-08-20T10:27:03.671Z,21.10
2022-08-20T10:29:32.342Z,21.10
2022-08-20T10:32:09.864Z,21.20
2022-08-20T10:34:37.808Z,21.30
2022-08-20T10:37:05.729Z,21.50
2022-08-20T10:39:33.683Z,21.70
2022-08-20T10:42:01.584Z,21.80
2022-08-20T10:44:29.920Z,21.90
2022-08-20T10:46:57.976Z,22.00
2022-08-20T10:49:27.977Z,22.00
2022-08-20T10:51:56.472Z,21.90
2022-08-20T10:54:25.264Z,21.90
2022-08-20T10:56:53.124Z,22.30
2022-08-20T10:59:20.998Z,22.40
2022-08-20T11:01:49.016Z,22.70
2022-08-20T11:04:16.912Z,22.80
2022-08-20T11:06:46.143Z,22.70
2022-08-20T11:09:14.213Z,22.30
2022-08-20T11:11:42.182Z,22.40
2022-08-20T11:14:10.189Z,22.50
2022-08-20T11:16:38.087Z,22.60
2022-08-20T11:19:06.599Z,22.50
2022-08-20T11:21:34.584Z,22.40
2022-08-20T11:24:04.637Z,22.40
2022-08-20T11:26:32.562Z,22.50
2022-08-20T11:29:00.467Z,22.30
2022-08-20T11:31:28.354Z,22.30
2022-08-20T11:33:56.793Z,21.90
2022-08-20T11:36:26.318Z,21.90
2022-08-20T11:38:54.384Z,21.60
2022-08-20T11:41:23.640Z,21.50
2022-08-20T11:44:17.409Z,21.30
2022-08-20T11:46:39.497Z,21.40
2022-08-20T11:49:07.666Z,21.10
2022-08-20T11:51:49.005Z,21.30
2022-08-20T11:54:18.188Z,21.60
2022-08-20T11:56:47.429Z,22.10
2022-08-20T11:59:15.382Z,22.30
2022-08-20T12:02:01.955Z,22.40
2022-08-20T12:04:33.367Z,22.40
2022-08-20T12:07:09.644Z,22.70
2022-08-20T12:09:37.642Z,22.60
2022-08-20T12:12:12.562Z,22.40
2022-08-20T12:14:41.970Z,22.30
2022-08-20T12:17:10.583Z,22.40
2022-08-20T12:19:39.314Z,22.50
2022-08-20T12:22:24.378Z,22.30
2022-08-20T12:24:53.891Z,22.10
2022-08-20T12:27:24.493Z,21.60
2022-08-20T12:29:54.715Z,21.40
2022-08-20T12:32:24.683Z,21.20
2022-08-20T12:34:53.007Z,21.10
2022-08-20T12:37:23.536Z,20.90
2022-08-20T12:39:53.025Z,21.00
2022-08-20T12:42:23.575Z,21.10
2022-08-20T12:44:51.425Z,21.40
2022-08-20T12:47:21.532Z,21.90
2022-08-20T12:49:51.617Z,22.60
2022-08-20T12:52:21.635Z,23.30
2022-08-20T12:54:49.705Z,24.20
2022-08-20T12:57:26.188Z,25.00
2022-08-20T12:59:54.064Z,25.40
2022-08-20T13:02:21.967Z,25.60
2022-08-20T13:04:49.855Z,25.70
2022-08-20T13:07:17.920Z,25.70
2022-08-20T13:09:46.252Z,25.20
2022-08-20T13:12:15.195Z,24.90
2022-08-20T13:14:44.933Z,24.80
2022-08-20T13:17:13.095Z,24.70
2022-08-20T13:19:41.005Z,24.20
2022-08-20T13:22:08.979Z,24.40
2022-08-20T13:24:37.502Z,24.50
2022-08-20T13:27:07.449Z,24.70
2022-08-20T13:29:35.849Z,24.40
2022-08-20T13:32:06.170Z,24.70
2022-08-20T13:34:34.092Z,25.00
2022-08-20T13:37:01.961Z,24.60
2022-08-20T13:39:29.868Z,24.40
2022-08-20T13:41:57.760Z,24.20
2022-08-20T13:44:32.794Z,24.20
2022-08-20T13:47:01.838Z,23.90
2022-08-20T13:49:34.061Z,24.40
2022-08-20T13:52:02.114Z,24.70
2022-08-20T13:54:31.187Z,24.90
2022-08-20T13:57:05.922Z,25.10
2022-08-20T13:59:37.360Z,25.40
2022-08-20T14:02:07.400Z,25.50
2022-08-20T14:04:37.406Z,25.30
2022-08-20T14:07:14.934Z,25.30
2022-08-20T14:09:44.910Z,25.10
2022-08-20T14:12:14.044Z,24.80
2022-08-20T14:14:43.288Z,24.60
2022-08-20T14:17:16.398Z,25.00
2022-08-20T14:19:45.835Z,24.90
2022-08-20T14:22:13.847Z,25.00
2022-08-20T14:24:41.747Z,24.30
2022-08-20T14:27:09.861Z,23.00
2022-08-20T14:29:40.119Z,21.70
2022-08-20T14:32:08.664Z,21.10
2022-08-20T14:34:37.377Z,20.70
2022-08-20T14:37:15.429Z,20.40
2022-08-20T14:39:44.696Z,20.30
2022-08-20T14:42:13.318Z,20.20
2022-08-20T14:44:41.940Z,20.10
2022-08-20T14:47:19.113Z,20.00
2022-08-20T14:49:48.308Z,19.80
2022-08-20T14:52:20.039Z,19.70
2022-08-20T14:54:48.965Z,19.60
2022-08-20T14:57:19.459Z,19.50
2022-08-20T14:59:47.697Z,19.50
2022-08-20T15:02:17.440Z,19.40
2022-08-20T15:04:48.795Z,19.50
2022-08-20T15:07:27.325Z,19.40
2022-08-20T15:09:57.139Z,19.50
2022-08-20T15:12:25.640Z,19.50
2022-08-20T15:14:53.542Z,19.50
2022-08-20T15:17:24.399Z,19.50
2022-08-20T15:19:52.926Z,19.20
2022-08-20T15:22:21.508Z,18.80
2022-08-20T15:24:52.719Z,18.60
2022-08-20T15:27:26.434Z,18.40
2022-08-20T15:29:54.962Z,18.10
2022-08-20T15:32:23.005Z,17.70
2022-08-20T15:34:51.334Z,17.40
2022-08-20T15:37:21.795Z,17.10
2022-08-20T15:39:52.031Z,17.10
2022-08-20T15:42:21.454Z,17.20
2022-08-20T15:44:49.409Z,17.10
2022-08-20T15:47:24.378Z,17.20
2022-08-20T15:49:56.867Z,17.20
2022-08-20T15:52:27.649Z,17.20
2022-08-20T15:54:56.950Z,17.20
2022-08-20T15:57:45.120Z,17.20
2022-08-20T16:00:16.382Z,17.20
2022-08-20T16:03:01.116Z,17.20
2022-08-20T16:05:39.943Z,17.10
2022-08-20T16:08:20.731Z,17.30
2022-08-20T16:10:58.950Z,17.30
2022-08-20T16:13:35.615Z,17.30
2022-08-20T16:16:05.410Z,17.30
2022-08-20T16:18:36.780Z,17.30
2022-08-20T16:21:11.305Z,17.30
2022-08-20T16:23:41.892Z,17.30
2022-08-20T16:26:24.484Z,17.40
2022-08-20T16:29:03.666Z,17.40
2022-08-20T16:31:42.889Z,17.50
2022-08-20T16:34:34.011Z,17.50
2022-08-20T16:37:12.516Z,17.50
2022-08-20T16:39:53.067Z,17.50
2022-08-20T16:42:25.637Z,17.50
2022-08-20T16:44:57.354Z,17.50
2022-08-20T16:47:29.570Z,17.40
2022-08-20T16:50:01.603Z,17.40
2022-08-20T16:52:29.957Z,17.40
2022-08-20T16:54:58.202Z,17.40
2022-08-20T16:57:29.100Z,17.30
2022-08-20T16:59:59.675Z,17.30
2022-08-20T17:02:27.717Z,17.30
2022-08-20T17:04:59.326Z,17.20
2022-08-20T17:07:33.498Z,17.10
2022-08-20T17:10:13.686Z,17.10
2022-08-20T17:12:42.993Z,17.20
2022-08-20T17:15:20.779Z,17.10
2022-08-20T17:17:48.860Z,17.10
2022-08-20T17:20:20.378Z,17.00
2022-08-20T17:22:51.661Z,17.10
2022-08-20T17:25:23.249Z,17.10
2022-08-20T17:27:52.549Z,17.10
2022-08-20T17:30:24.800Z,17.10
2022-08-20T17:32:59.516Z,17.20
2022-08-20T17:35:31.638Z,17.20
2022-08-20T17:38:01.028Z,17.20
2022-08-20T17:40:33.364Z,17.20
2022-08-20T17:43:04.986Z,17.30
2022-08-20T17:45:38.426Z,17.30
2022-08-20T17:48:07.801Z,17.20
2022-08-20T17:50:39.435Z,17.20
2022-08-20T17:53:18.761Z,17.20
2022-08-20T17:55:53.144Z,17.20
2022-08-20T17:58:32.394Z,17.20
2022-08-20T18:01:00.865Z,17.30
2022-08-20T18:03:29.283Z,17.30
2022-08-20T18:06:02.655Z,17.40
2022-08-20T18:08:39.912Z,17.40
2022-08-20T18:11:18.151Z,17.40
2022-08-20T18:14:06.120Z,17.40
2022-08-20T18:16:44.891Z,17.40
2022-08-20T18:19:19.819Z,17.40
2022-08-20T18:22:07.925Z,17.40
2022-08-20T18:24:44.580Z,17.40
2022-08-20T18:27:15.726Z,17.40
2022-08-20T18:29:49.565Z,17.50
2022-08-20T18:32:31.576Z,17.50
2022-08-20T18:35:18.655Z,17.60
2022-08-20T18:37:46.641Z,17.60
2022-08-20T18:40:24.030Z,17.60
2022-08-20T18:42:52.042Z,17.60
2022-08-20T18:45:31.322Z,17.60
2022-08-20T18:47:59.968Z,17.60
2022-08-20T18:50:32.566Z,17.50
2022-08-20T18:53:11.720Z,17.60
2022-08-20T18:55:43.284Z,17.50
2022-08-20T18:58:13.855Z,17.50
2022-08-20T19:00:46.035Z,17.50
2022-08-20T19:03:19.376Z,17.50
2022-08-20T19:06:08.721Z,17.50
2022-08-20T19:08:45.719Z,17.40
2022-08-20T19:11:34.915Z,17.40
2022-08-20T19:14:21.797Z,17.40
2022-08-20T19:16:56.873Z,17.50
2022-08-20T19:19:28.546Z,17.50
2022-08-20T19:22:02.554Z,17.50
2022-08-20T19:24:34.698Z,17.50
2022-08-20T19:27:06.206Z,17.50
2022-08-20T19:29:38.155Z,17.50
2022-08-20T19:32:10.462Z,17.60
2022-08-20T19:34:42.036Z,17.60
2022-08-20T19:37:31.592Z,17.50
2022-08-20T19:40:05.985Z,17.50
2022-08-20T19:42:43.154Z,17.50
2022-08-20T19:45:18.186Z,17.50
2022-08-20T19:47:56.668Z,17.50
2022-08-20T19:50:36.648Z,17.50
2022-08-20T19:53:15.028Z,17.50
2022-08-20T19:55:43.818Z,17.50
2022-08-20T19:58:16.869Z,17.50
2022-08-20T20:00:55.382Z,17.50
2022-08-20T20:03:27.510Z,17.60
2022-08-20T20:05:57.646Z,17.60
2022-08-20T20:08:30.314Z,17.60
2022-08-20T20:11:00.547Z,17.50
2022-08-20T20:13:35.985Z,17.50
2022-08-20T20:16:08.333Z,17.40
2022-08-20T20:18:41.217Z,17.40
2022-08-20T20:21:13.411Z,17.40
2022-08-20T20:23:46.735Z,17.40
2022-08-20T20:26:18.251Z,17.40
2022-08-20T20:28:49.001Z,17.30
2022-08-20T20:31:23.301Z,17.30
2022-08-20T20:33:55.893Z,17.30
2022-08-20T20:36:36.086Z,17.30
2022-08-20T20:39:12.457Z,17.30
2022-08-20T20:41:52.259Z,17.30
2022-08-20T20:44:22.473Z,17.30
2022-08-20T20:46:55.814Z,17.30
2022-08-20T20:49:27.780Z,17.30
2022-08-20T20:52:00.640Z,17.30
2022-08-20T20:54:40.503Z,17.30
2022-08-20T20:57:10.176Z,17.30
2022-08-20T20:59:38.292Z,17.30
2022-08-20T21:02:06.391Z,17.30
2022-08-20T21:04:38.499Z,17.30
2022-08-20T21:07:11.153Z,17.20
2022-08-20T21:09:41.538Z,17.30
2022-08-20T21:12:10.449Z,17.20
2022-08-20T21:14:38.551Z,17.20
2022-08-20T21:17:10.065Z,17.20
2022-08-20T21:19:41.112Z,17.20
2022-08-20T21:22:13.152Z,17.20
2022-08-20T21:24:41.106Z,17.10
2022-08-20T21:27:09.806Z,17.20
2022-08-20T21:29:40.447Z,17.20
2022-08-20T21:32:09.066Z,17.10
2022-08-20T21:34:41.797Z,17.20
2022-08-20T21:37:09.660Z,17.20
2022-08-20T21:39:37.846Z,17.20
2022-08-20T21:42:28.260Z,17.20
2022-08-20T21:44:56.849Z,17.20
2022-08-20T21:47:24.922Z,17.30
2022-08-20T21:49:54.477Z,17.20
2022-08-20T21:52:22.539Z,17.20
2022-08-20T21:54:50.425Z,17.20
2022-08-20T21:57:21.463Z,17.20
2022-08-20T21:59:50.198Z,17.20
2022-08-20T22:02:19.343Z,17.20
2022-08-20T22:04:47.209Z,17.20
2022-08-20T22:07:17.153Z,17.20
2022-08-20T22:09:45.125Z,17.10
2022-08-20T22:12:19.218Z,17.20
2022-08-20T22:14:47.494Z,17.20
2022-08-20T22:17:15.767Z,17.20
2022-08-20T22:19:43.804Z,17.20
2022-08-20T22:22:13.164Z,17.20
2022-08-20T22:24:42.877Z,17.20
2022-08-20T22:27:10.915Z,17.30
2022-08-20T22:29:39.202Z,17.30
2022-08-20T22:32:07.414Z,17.30
2022-08-20T22:34:37.939Z,17.30
2022-08-20T22:37:06.208Z,17.30
2022-08-20T22:39:34.298Z,17.30
2022-08-20T22:42:03.631Z,17.30
2022-08-20T22:44:31.530Z,17.30
2022-08-20T22:47:02.764Z,17.30
2022-08-20T22:49:34.329Z,17.30
2022-08-20T22:52:02.596Z,17.40
2022-08-20T22:54:30.894Z,17.30
2022-08-20T22:56:58.811Z,17.40
2022-08-20T22:59:28.941Z,17.40
2022-08-20T23:01:59.182Z,17.40
2022-08-20T23:04:29.452Z,17.40
2022-08-20T23:06:58.382Z,17.40
2022-08-20T23:09:27.326Z,17.40
2022-08-20T23:11:55.248Z,17.40
2022-08-20T23:14:23.398Z,17.30
2022-08-20T23:17:01.889Z,17.30
2022-08-20T23:19:29.896Z,17.30
2022-08-20T23:21:57.819Z,17.30
2022-08-20T23:24:25.988Z,17.30
2022-08-20T23:26:54.321Z,17.30
2022-08-20T23:29:25.427Z,17.30
2022-08-20T23:31:56.573Z,17.20
2022-08-20T23:34:24.944Z,17.20
2022-08-20T23:36:53.321Z,17.20
2022-08-20T23:39:21.665Z,17.20
2022-08-20T23:41:49.575Z,17.10
2022-08-20T23:44:26.372Z,17.20
2022-08-20T23:46:57.666Z,17.10
2022-08-20T23:49:26.082Z,17.10
2022-08-20T23:51:54.022Z,17.10
2022-08-20T23:54:22.135Z,17.10
2022-08-20T23:56:50.033Z,17.10
2022-08-20T23:59:18.304Z,17.10
